createdAt,value
2022-10-12T00:01:12.024Z,13.19
2022-10-12T00:03:40.381Z,13.19
2022-10-12T00:06:11.405Z,13.23
2022-10-12T00:08:40.813Z,13.35
2022-10-12T00:11:15.183Z,13.43
2022-10-12T00:13:43.811Z,13.56
2022-10-12T00:16:13.492Z,13.50
2022-10-12T00:18:42.047Z,13.43
2022-10-12T00:21:15.207Z,13.35
2022-10-12T00:23:44.681Z,13.29
2022-10-12T00:26:15.876Z,13.24
2022-10-12T00:28:46.231Z,13.26
2022-10-12T00:31:16.998Z,13.33
2022-10-12T00:33:46.012Z,13.37
2022-10-12T00:36:26.632Z,13.36
2022-10-12T00:38:56.396Z,13.30
2022-10-12T00:41:28.211Z,13.29
2022-10-12T00:43:58.459Z,13.29
2022-10-12T00:46:35.225Z,13.18
2022-10-12T00:49:17.983Z,13.16
2022-10-12T00:51:53.878Z,13.16
2022-10-12T00:54:31.277Z,13.12
2022-10-12T00:57:02.911Z,13.07
2022-10-12T00:59:58.110Z,13.05
2022-10-12T01:02:28.108Z,13.02
2022-10-12T01:04:57.702Z,13.02
2022-10-12T01:07:26.197Z,13.06
2022-10-12T01:09:54.397Z,13.12
2022-10-12T01:12:23.503Z,13.02
2022-10-12T01:14:51.889Z,13.00
2022-10-12T01:17:39.546Z,12.97
2022-10-12T01:20:17.166Z,12.97
2022-10-12T01:23:18.732Z,12.95
2022-10-12T01:26:10.824Z,13.02
2022-10-12T01:28:53.925Z,13.01
2022-10-12T01:31:33.100Z,12.99
2022-10-12T01:34:06.502Z,13.02
2022-10-12T01:36:40.648Z,12.99
2022-10-12T01:39:08.689Z,13.08
2022-10-12T01:41:42.827Z,13.15
2022-10-12T01:44:10.885Z,13.19
2022-10-12T01:46:43.805Z,13.10
2022-10-12T01:49:15.957Z,12.86
2022-10-12T01:52:09.029Z,12.86
2022-10-12T01:55:01.514Z,12.85
2022-10-12T01:57:51.330Z,12.86
2022-10-12T02:00:20.405Z,12.87
2022-10-12T02:02:54.227Z,12.88
2022-10-12T02:05:25.521Z,12.84
2022-10-12T02:08:06.863Z,12.88
2022-10-12T02:10:40.340Z,12.86
2022-10-12T02:13:13.140Z,12.86
2022-10-12T02:15:43.242Z,12.85
2022-10-12T02:18:14.535Z,12.82
2022-10-12T02:20:44.617Z,12.81
2022-10-12T02:23:18.913Z,12.78
2022-10-12T02:25:49.285Z,12.75
2022-10-12T02:28:22.422Z,12.72
2022-10-12T02:31:18.313Z,12.75
2022-10-12T02:34:02.273Z,12.61
2022-10-12T02:36:39.620Z,12.69
2022-10-12T02:39:16.413Z,12.70
2022-10-12T02:41:59.091Z,12.58
2022-10-12T02:44:32.058Z,12.42
2022-10-12T02:47:02.874Z,12.46
2022-10-12T02:49:34.282Z,12.51
2022-10-12T02:52:05.192Z,12.54
2022-10-12T02:54:33.237Z,12.60
2022-10-12T02:57:01.458Z,12.67
2022-10-12T02:59:29.540Z,12.77
2022-10-12T03:01:57.649Z,12.78
2022-10-12T03:04:26.302Z,12.82
2022-10-12T03:06:54.372Z,12.76
2022-10-12T03:09:22.579Z,12.72
2022-10-12T03:11:51.628Z,12.69
2022-10-12T03:14:21.256Z,12.68
2022-10-12T03:16:49.417Z,12.69
2022-10-12T03:19:17.818Z,12.68
2022-10-12T03:21:45.953Z,12.67
2022-10-12T03:24:14.477Z,12.65
2022-10-12T03:26:42.561Z,12.64
2022-10-12T03:29:10.764Z,12.59
2022-10-12T03:31:38.837Z,12.58
2022-10-12T03:34:07.036Z,12.59
2022-10-12T03:36:35.161Z,12.56
2022-10-12T03:39:03.495Z,12.59
2022-10-12T03:41:31.605Z,12.58
2022-10-12T03:43:59.840Z,12.66
2022-10-12T03:46:27.912Z,12.64
2022-10-12T03:48:56.035Z,12.51
2022-10-12T03:51:24.225Z,12.52
2022-10-12T03:53:52.396Z,12.19
2022-10-12T03:56:20.588Z,12.14
2022-10-12T03:58:48.669Z,12.01
2022-10-12T04:01:16.876Z,11.90
2022-10-12T04:03:45.053Z,11.90
2022-10-12T04:06:13.184Z,11.97
2022-10-12T04:08:43.458Z,11.96
2022-10-12T04:11:13.129Z,12.04
2022-10-12T04:13:41.180Z,11.95
2022-10-12T04:16:12.301Z,11.99
2022-10-12T04:18:45.568Z,12.00
2022-10-12T04:21:15.905Z,12.10
2022-10-12T04:23:44.226Z,12.13
2022-10-12T04:26:12.452Z,11.97
2022-10-12T04:28:40.607Z,11.88
2022-10-12T04:31:08.864Z,11.91
2022-10-12T04:33:36.955Z,11.91
2022-10-12T04:36:05.278Z,11.90
2022-10-12T04:38:33.346Z,11.92
2022-10-12T04:41:01.462Z,11.93
2022-10-12T04:43:29.637Z,11.96
2022-10-12T04:45:59.905Z,11.99
2022-10-12T04:48:28.358Z,12.00
2022-10-12T04:50:56.488Z,12.03
2022-10-12T04:53:24.714Z,11.90
2022-10-12T04:55:52.854Z,11.75
2022-10-12T04:58:21.011Z,11.75
2022-10-12T05:00:49.515Z,11.71
2022-10-12T05:03:17.644Z,11.73
2022-10-12T05:05:46.010Z,11.74
2022-10-12T05:08:14.191Z,11.76
2022-10-12T05:10:42.459Z,11.83
2022-10-12T05:13:10.621Z,11.93
2022-10-12T05:15:38.703Z,11.90
2022-10-12T05:18:06.876Z,11.96
2022-10-12T05:20:37.136Z,11.86
2022-10-12T05:23:05.292Z,11.90
2022-10-12T05:25:35.331Z,11.83
2022-10-12T05:28:03.737Z,11.78
2022-10-12T05:30:31.875Z,11.78
2022-10-12T05:33:00.012Z,11.83
2022-10-12T05:35:28.194Z,11.90
2022-10-12T05:37:56.236Z,12.00
2022-10-12T05:40:24.470Z,12.08
2022-10-12T05:42:52.557Z,12.14
2022-10-12T05:45:20.623Z,12.14
2022-10-12T05:47:48.693Z,12.06
2022-10-12T05:50:17.681Z,11.96
2022-10-12T05:52:45.893Z,12.02
2022-10-12T05:55:14.282Z,12.09
2022-10-12T05:57:42.335Z,12.26
2022-10-12T06:00:11.059Z,12.34
2022-10-12T06:02:39.735Z,12.43
2022-10-12T06:05:08.676Z,12.48
2022-10-12T06:07:36.977Z,12.49
2022-10-12T06:10:08.965Z,12.51
2022-10-12T06:12:37.347Z,12.54
2022-10-12T06:15:06.348Z,12.62
2022-10-12T06:17:34.555Z,12.72
2022-10-12T06:20:02.807Z,12.71
2022-10-12T06:22:30.943Z,12.64
2022-10-12T06:24:59.285Z,12.68
2022-10-12T06:27:27.375Z,12.83
2022-10-12T06:29:55.670Z,12.93
2022-10-12T06:32:23.948Z,12.99
2022-10-12T06:34:52.251Z,13.06
2022-10-12T06:37:48.141Z,13.20
2022-10-12T06:40:09.064Z,13.39
2022-10-12T06:42:37.382Z,13.58
2022-10-12T06:45:07.865Z,13.69
2022-10-12T06:47:38.506Z,13.83
2022-10-12T06:50:08.095Z,13.98
2022-10-12T06:52:37.041Z,14.15
2022-10-12T06:55:06.824Z,14.29
2022-10-12T06:57:34.972Z,14.39
2022-10-12T07:00:03.701Z,14.45
2022-10-12T07:02:31.841Z,14.56
2022-10-12T07:04:59.965Z,14.59
2022-10-12T07:07:31.881Z,14.71
2022-10-12T07:10:00.482Z,14.82
2022-10-12T07:12:28.624Z,14.95
2022-10-12T07:14:57.958Z,15.08
2022-10-12T07:17:26.119Z,15.28
2022-10-12T07:19:54.317Z,15.46
2022-10-12T07:22:22.474Z,15.69
2022-10-12T07:24:50.781Z,16.15
2022-10-12T07:27:19.073Z,17.17
2022-10-12T07:29:50.761Z,17.98
2022-10-12T07:32:19.010Z,18.83
2022-10-12T07:34:47.142Z,18.98
2022-10-12T07:37:15.718Z,19.17
2022-10-12T07:39:44.582Z,19.69
2022-10-12T07:42:18.246Z,19.99
2022-10-12T07:44:47.647Z,20.05
2022-10-12T07:47:17.712Z,19.87
2022-10-12T07:49:45.901Z,19.76
2022-10-12T07:52:14.159Z,19.34
2022-10-12T07:54:42.406Z,19.35
2022-10-12T07:57:10.838Z,19.28
2022-10-12T07:59:38.943Z,19.34
2022-10-12T08:02:10.225Z,19.40
2022-10-12T08:04:38.378Z,19.46
2022-10-12T08:07:06.674Z,19.51
2022-10-12T08:09:36.585Z,19.67
2022-10-12T08:12:04.938Z,19.80
2022-10-12T08:14:33.011Z,19.93
2022-10-12T08:17:01.780Z,19.98
2022-10-12T08:19:35.105Z,20.11
2022-10-12T08:22:03.784Z,20.19
2022-10-12T08:24:31.929Z,20.27
2022-10-12T08:27:01.560Z,20.38
2022-10-12T08:29:29.977Z,20.39
2022-10-12T08:31:58.204Z,20.48
2022-10-12T08:34:26.369Z,20.45
2022-10-12T08:36:54.778Z,20.48
2022-10-12T08:39:23.028Z,20.57
2022-10-12T08:42:27.066Z,20.61
2022-10-12T08:45:14.793Z,20.70
2022-10-12T08:48:01.595Z,20.80
2022-10-12T08:50:35.864Z,20.88
2022-10-12T08:53:23.216Z,21.04
2022-10-12T08:55:52.688Z,20.99
2022-10-12T08:58:36.746Z,20.87
2022-10-12T09:01:29.073Z,20.89
2022-10-12T09:04:17.354Z,21.09
2022-10-12T09:07:09.432Z,21.28
2022-10-12T09:09:48.254Z,21.24
2022-10-12T09:12:37.750Z,21.16
2022-10-12T09:15:20.081Z,21.36
2022-10-12T09:17:54.656Z,21.37
2022-10-12T09:20:31.363Z,21.52
2022-10-12T09:23:17.336Z,21.55
2022-10-12T09:25:47.290Z,21.38
2022-10-12T09:28:40.518Z,21.33
2022-10-12T09:31:30.313Z,21.43
2022-10-12T09:34:04.915Z,21.58
2022-10-12T09:36:38.804Z,21.65
2022-10-12T09:39:32.227Z,21.65
2022-10-12T09:42:00.679Z,21.48
2022-10-12T09:44:37.829Z,21.63
2022-10-12T09:47:28.086Z,21.69
2022-10-12T09:49:58.868Z,21.78
2022-10-12T09:52:43.384Z,21.82
2022-10-12T09:55:23.679Z,21.81
2022-10-12T09:58:02.187Z,21.79
2022-10-12T10:00:33.366Z,21.87
2022-10-12T10:03:03.214Z,21.93
2022-10-12T10:05:33.132Z,22.00
2022-10-12T10:08:23.476Z,22.10
2022-10-12T10:10:53.113Z,22.10
2022-10-12T10:13:23.966Z,22.09
2022-10-12T10:16:04.203Z,22.07
2022-10-12T10:18:44.493Z,22.20
2022-10-12T10:21:14.658Z,22.29
2022-10-12T10:23:44.742Z,22.47
2022-10-12T10:26:15.620Z,22.68
2022-10-12T10:28:46.936Z,22.79
2022-10-12T10:31:17.092Z,22.89
2022-10-12T10:33:45.307Z,22.89
2022-10-12T10:36:23.353Z,22.97
2022-10-12T10:39:05.537Z,23.08
2022-10-12T10:41:39.548Z,22.91
2022-10-12T10:44:32.941Z,22.75
2022-10-12T10:47:13.007Z,22.93
2022-10-12T10:49:51.977Z,23.10
2022-10-12T10:52:40.713Z,23.21
2022-10-12T10:55:19.750Z,23.23
2022-10-12T10:57:54.917Z,23.16
2022-10-12T11:00:38.684Z,23.25
2022-10-12T11:03:33.439Z,23.41
2022-10-12T11:06:21.811Z,23.57
2022-10-12T11:09:00.031Z,23.60
2022-10-12T11:11:32.368Z,23.68
2022-10-12T11:14:08.162Z,23.71
2022-10-12T11:16:48.792Z,23.86
2022-10-12T11:19:42.329Z,24.14
2022-10-12T11:22:20.304Z,24.35
2022-10-12T11:25:10.788Z,24.73
2022-10-12T11:27:41.165Z,25.07
2022-10-12T11:30:22.481Z,25.22
2022-10-12T11:33:01.163Z,25.74
2022-10-12T11:35:35.599Z,25.98
2022-10-12T11:38:27.209Z,25.89
2022-10-12T11:41:13.680Z,25.32
2022-10-12T11:44:02.503Z,25.34
2022-10-12T11:47:02.867Z,25.58
2022-10-12T11:49:44.224Z,25.72
2022-10-12T11:52:13.075Z,25.48
2022-10-12T11:55:19.423Z,25.38
2022-10-12T11:57:49.669Z,25.46
2022-10-12T12:00:27.045Z,25.24
2022-10-12T12:03:25.483Z,24.99
2022-10-12T12:05:53.619Z,24.97
2022-10-12T12:08:41.675Z,24.70
2022-10-12T12:11:22.098Z,24.82
2022-10-12T12:13:50.840Z,24.81
2022-10-12T12:16:18.888Z,25.08
2022-10-12T12:19:38.701Z,25.08
2022-10-12T12:22:29.154Z,25.55
2022-10-12T12:25:20.048Z,25.29
2022-10-12T12:27:51.409Z,25.10
2022-10-12T12:30:19.496Z,25.21
2022-10-12T12:32:59.665Z,25.40
2022-10-12T12:35:30.473Z,25.60
2022-10-12T12:38:11.277Z,25.18
2022-10-12T12:40:41.744Z,24.85
2022-10-12T12:43:28.390Z,24.63
2022-10-12T12:46:03.610Z,24.84
2022-10-12T12:48:43.422Z,24.70
2022-10-12T12:51:15.700Z,24.40
2022-10-12T12:54:00.789Z,24.63
2022-10-12T12:56:49.704Z,24.64
2022-10-12T12:59:36.315Z,24.73
2022-10-12T13:02:28.266Z,24.87
2022-10-12T13:05:15.283Z,25.02
2022-10-12T13:07:49.408Z,24.89
2022-10-12T13:10:29.528Z,24.87
2022-10-12T13:13:24.688Z,24.92
2022-10-12T13:15:55.785Z,24.80
2022-10-12T13:18:48.407Z,24.54
2022-10-12T13:21:57.081Z,24.62
2022-10-12T13:24:34.429Z,24.78
2022-10-12T13:27:18.542Z,24.85
2022-10-12T13:29:58.269Z,24.93
2022-10-12T13:32:34.472Z,24.95
2022-10-12T13:35:15.084Z,25.09
2022-10-12T13:37:43.164Z,24.93
2022-10-12T13:40:38.713Z,24.95
2022-10-12T13:43:19.005Z,25.00
2022-10-12T13:45:48.661Z,25.16
2022-10-12T13:48:34.106Z,25.00
2022-10-12T13:51:25.796Z,24.90
2022-10-12T13:53:54.581Z,24.94
2022-10-12T13:56:28.396Z,24.97
2022-10-12T13:59:05.351Z,24.93
2022-10-12T14:02:00.624Z,25.06
2022-10-12T14:04:34.741Z,24.87
2022-10-12T14:07:13.853Z,24.50
2022-10-12T14:09:46.525Z,24.07
2022-10-12T14:12:15.741Z,24.05
2022-10-12T14:14:46.572Z,23.98
2022-10-12T14:17:19.372Z,23.89
2022-10-12T14:19:53.541Z,23.87
2022-10-12T14:22:26.765Z,23.73
2022-10-12T14:25:15.591Z,23.62
2022-10-12T14:27:43.906Z,23.50
2022-10-12T14:30:18.170Z,23.45
2022-10-12T14:32:46.798Z,23.42
2022-10-12T14:35:21.361Z,23.38
2022-10-12T14:37:50.890Z,23.38
2022-10-12T14:40:27.806Z,23.22
2022-10-12T14:43:04.917Z,23.27
2022-10-12T14:45:34.088Z,23.20
2022-10-12T14:48:02.703Z,23.06
2022-10-12T14:50:32.413Z,22.98
2022-10-12T14:53:07.708Z,22.88
2022-10-12T14:55:36.012Z,22.75
2022-10-12T14:58:08.211Z,22.61
2022-10-12T15:00:37.767Z,22.48
2022-10-12T15:03:06.274Z,22.36
2022-10-12T15:05:34.947Z,22.25
2022-10-12T15:08:09.125Z,22.19
2022-10-12T15:10:38.239Z,22.24
2022-10-12T15:13:06.384Z,22.15
2022-10-12T15:15:45.754Z,22.11
2022-10-12T15:18:13.981Z,22.06
2022-10-12T15:20:46.781Z,21.96
2022-10-12T15:23:17.910Z,21.85
2022-10-12T15:25:52.950Z,21.76
2022-10-12T15:28:22.349Z,21.69
2022-10-12T15:31:16.365Z,21.62
2022-10-12T15:33:43.117Z,21.51
2022-10-12T15:36:11.313Z,21.34
2022-10-12T15:38:39.877Z,21.22
2022-10-12T15:41:20.768Z,21.13
2022-10-12T15:43:48.900Z,21.04
2022-10-12T15:46:17.025Z,20.97
2022-10-12T15:48:48.003Z,20.88
2022-10-12T15:51:22.828Z,20.82
2022-10-12T15:53:54.959Z,20.74
2022-10-12T15:56:23.736Z,20.78
2022-10-12T15:58:51.996Z,20.71
2022-10-12T16:01:21.041Z,20.70
2022-10-12T16:03:49.757Z,20.64
2022-10-12T16:06:18.046Z,20.52
2022-10-12T16:08:46.156Z,20.36
2022-10-12T16:11:16.654Z,20.23
2022-10-12T16:13:50.034Z,20.17
2022-10-12T16:16:22.383Z,20.15
2022-10-12T16:18:52.143Z,19.98
2022-10-12T16:21:20.359Z,19.87
2022-10-12T16:23:48.501Z,19.79
2022-10-12T16:26:16.913Z,19.72
2022-10-12T16:28:45.101Z,19.65
2022-10-12T16:31:17.417Z,19.54
2022-10-12T16:33:45.735Z,19.43
2022-10-12T16:36:15.923Z,19.33
2022-10-12T16:38:44.877Z,19.20
2022-10-12T16:41:15.329Z,19.11
2022-10-12T16:59:52.630Z,18.47
2022-10-12T17:02:21.637Z,18.47
2022-10-12T17:04:49.806Z,18.43
2022-10-12T17:07:18.058Z,18.39
2022-10-12T17:09:46.272Z,18.33
2022-10-12T17:12:14.736Z,18.29
2022-10-12T17:14:43.383Z,18.21
2022-10-12T17:17:11.593Z,18.17
2022-10-12T17:19:47.300Z,18.17
2022-10-12T17:22:21.569Z,18.19
2022-10-12T17:24:52.795Z,18.17
2022-10-12T17:27:29.882Z,18.16
2022-10-12T17:30:05.960Z,18.12
2022-10-12T17:32:38.144Z,18.05
2022-10-12T17:35:07.360Z,17.99
2022-10-12T17:37:37.694Z,17.96
2022-10-12T17:40:16.840Z,17.90
2022-10-12T17:42:45.653Z,17.80
2022-10-12T17:45:14.141Z,17.81
2022-10-12T17:47:43.212Z,17.73
2022-10-12T17:50:11.539Z,17.68
2022-10-12T17:52:39.681Z,17.60
2022-10-12T17:55:19.181Z,17.55
2022-10-12T17:57:56.367Z,17.55
2022-10-12T18:00:24.625Z,17.49
2022-10-12T18:02:52.829Z,17.46
2022-10-12T18:05:21.197Z,17.38
2022-10-12T18:07:49.454Z,17.33
2022-10-12T18:10:17.879Z,17.27
2022-10-12T18:12:46.044Z,17.19
2022-10-12T18:15:14.361Z,17.10
2022-10-12T18:17:42.529Z,17.04
2022-10-12T18:20:11.169Z,16.95
2022-10-12T18:22:39.309Z,16.90
2022-10-12T18:25:11.417Z,16.84
2022-10-12T18:27:39.675Z,16.81
2022-10-12T18:30:08.400Z,16.75
2022-10-12T18:32:36.576Z,16.67
2022-10-12T18:35:05.251Z,16.64
2022-10-12T18:37:33.493Z,16.62
2022-10-12T18:40:01.748Z,16.59
2022-10-12T18:42:29.944Z,16.54
2022-10-12T18:44:58.118Z,16.50
2022-10-12T18:47:26.270Z,16.44
2022-10-12T18:49:54.514Z,16.44
2022-10-12T18:52:23.243Z,16.36
2022-10-12T18:54:51.442Z,16.30
2022-10-12T18:57:19.635Z,16.27
2022-10-12T18:59:50.258Z,16.21
2022-10-12T19:02:22.507Z,16.17
2022-10-12T19:04:50.822Z,16.16
2022-10-12T19:07:19.079Z,16.13
2022-10-12T19:09:47.344Z,16.10
2022-10-12T19:12:17.103Z,16.09
2022-10-12T19:14:47.819Z,15.98
2022-10-12T19:17:16.915Z,15.88
2022-10-12T19:19:45.324Z,15.89
2022-10-12T19:22:13.483Z,15.84
2022-10-12T19:24:41.905Z,15.82
2022-10-12T19:27:10.779Z,15.76
2022-10-12T19:29:42.397Z,15.72
2022-10-12T19:32:13.755Z,15.69
2022-10-12T19:34:45.221Z,15.66
2022-10-12T19:37:13.895Z,15.64
2022-10-12T19:39:44.985Z,15.63
2022-10-12T19:42:13.179Z,15.65
2022-10-12T19:44:42.075Z,15.65
2022-10-12T19:47:10.233Z,15.64
2022-10-12T19:49:41.943Z,15.56
2022-10-12T19:52:12.884Z,15.53
2022-10-12T19:54:41.021Z,15.48
2022-10-12T19:57:09.342Z,15.44
2022-10-12T19:59:37.543Z,15.46
2022-10-12T20:02:05.767Z,15.44
2022-10-12T20:04:33.984Z,15.45
2022-10-12T20:07:02.183Z,15.44
2022-10-12T20:09:30.890Z,15.42
2022-10-12T20:11:59.175Z,15.38
2022-10-12T20:14:27.706Z,15.30
2022-10-12T20:16:56.163Z,15.29
2022-10-12T20:19:27.277Z,15.33
2022-10-12T20:21:55.486Z,15.35
2022-10-12T20:24:23.733Z,15.30
2022-10-12T20:26:51.930Z,15.28
2022-10-12T20:29:20.076Z,15.22
2022-10-12T20:31:48.330Z,15.19
2022-10-12T20:34:16.536Z,15.19
2022-10-12T20:36:44.783Z,15.19
2022-10-12T20:39:12.980Z,15.13
2022-10-12T20:41:41.249Z,15.05
2022-10-12T20:44:10.488Z,15.02
2022-10-12T20:46:38.748Z,14.98
2022-10-12T20:49:07.297Z,14.97
2022-10-12T20:51:37.044Z,14.96
2022-10-12T20:54:06.593Z,14.88
2022-10-12T20:56:35.159Z,14.80
2022-10-12T20:59:03.413Z,14.79
2022-10-12T21:01:34.728Z,14.82
2022-10-12T21:04:03.182Z,14.81
2022-10-12T21:06:31.398Z,14.85
2022-10-12T21:08:59.512Z,14.87
2022-10-12T21:11:27.785Z,14.90
2022-10-12T21:13:56.127Z,14.91
2022-10-12T21:16:24.506Z,14.95
2022-10-12T21:19:00.058Z,15.03
2022-10-12T21:21:28.486Z,14.88
2022-10-12T21:24:01.294Z,14.75
2022-10-12T21:26:31.004Z,14.67
2022-10-12T21:29:00.174Z,14.58
2022-10-12T21:31:32.304Z,14.52
2022-10-12T21:34:03.514Z,14.42
2022-10-12T21:36:34.185Z,14.42
2022-10-12T21:39:02.884Z,14.48
2022-10-12T21:41:49.545Z,14.45
2022-10-12T21:44:18.242Z,14.44
2022-10-12T21:46:49.211Z,14.48
2022-10-12T21:49:17.382Z,14.50
2022-10-12T21:51:45.707Z,14.54
2022-10-12T21:54:13.976Z,14.54
2022-10-12T21:56:42.648Z,14.52
2022-10-12T21:59:11.083Z,14.53
2022-10-12T22:01:40.658Z,14.56
2022-10-12T22:04:13.910Z,14.61
2022-10-12T22:06:43.480Z,14.62
2022-10-12T22:09:17.020Z,14.58
2022-10-12T22:11:46.769Z,14.53
2022-10-12T22:14:17.597Z,14.44
2022-10-12T22:16:46.298Z,14.36
2022-10-12T22:19:19.066Z,14.33
2022-10-12T22:21:49.334Z,14.30
2022-10-12T22:24:18.503Z,14.32
2022-10-12T22:26:47.291Z,14.38
2022-10-12T22:29:15.581Z,14.49
2022-10-12T22:31:44.606Z,14.62
2022-10-12T22:34:13.068Z,14.63
2022-10-12T22:36:41.460Z,14.53
2022-10-12T22:39:10.132Z,14.39
2022-10-12T22:41:38.469Z,14.14
2022-10-12T22:44:06.800Z,13.86
2022-10-12T22:46:34.982Z,13.84
2022-10-12T22:49:04.228Z,13.82
2022-10-12T22:51:39.215Z,13.78
2022-10-12T22:54:07.544Z,13.77
2022-10-12T22:56:35.726Z,13.85
2022-10-12T22:59:07.176Z,13.89
2022-10-12T23:01:36.245Z,13.93
2022-10-12T23:04:05.393Z,13.79
2022-10-12T23:06:33.975Z,13.80
2022-10-12T23:09:03.181Z,13.84
2022-10-12T23:11:31.447Z,13.83
2022-10-12T23:13:59.680Z,13.79
2022-10-12T23:16:30.653Z,13.68
2022-10-12T23:19:04.733Z,13.60
2022-10-12T23:21:34.806Z,13.55
2022-10-12T23:24:05.067Z,13.59
2022-10-12T23:26:34.062Z,13.57
2022-10-12T23:29:02.468Z,13.52
2022-10-12T23:31:31.466Z,13.51
2022-10-12T23:34:04.354Z,13.48
2022-10-12T23:36:32.739Z,13.44
2022-10-12T23:39:02.463Z,13.49
2022-10-12T23:41:30.702Z,13.49
2022-10-12T23:43:58.983Z,13.64
2022-10-12T23:46:27.324Z,13.69
2022-10-12T23:48:57.837Z,13.74
2022-10-12T23:51:26.036Z,13.57
2022-10-12T23:53:54.229Z,13.50
2022-10-12T23:56:22.566Z,13.39
2022-10-12T23:58:50.885Z,13.54
